AirNav   Phillips 66 Aviation Fuel
 
 289 users online  

WN09 Bucky's Airpark
Plainfield, Wisconsin, USA

GOING TO PLAINFIELD?


FAA INFORMATION EFFECTIVE 12 SEPTEMBER 2019

Location

FAA Identifier: WN09
Lat/Long: 44-09-52.0000N 089-30-29.0000W
44-09.866667N 089-30.483333W
44.1644444,-89.5080556
(estimated)
Elevation: 1145 ft. / 349 m (estimated)
From city: 3 miles S of PLAINFIELD, WI
Time zone: UTC -5 (UTC -6 during Standard Time)
Zip code: 54966

Airport Operations

Airport use: Private use. Permission required prior to landing
Activation date: 12/2003
Control tower: no
ARTCC: CHICAGO CENTER
FSS: GREEN BAY FLIGHT SERVICE STATION
Attendance: UNATNDD
Wind indicator: yes
Segmented circle: no

Airport Communications

WX AWOS-3PT at Y50 (11 nm SE): 119.475 (920-787-0515)
WX ASOS at ISW (18 nm NW): 126.575 (715-421-2120)

Nearby radio navigation aids

VOR radial/distance  VOR name  Freq  Var
DLLr014/38.4DELLS VORTAC117.0003E

 
NDB name  Hdg/Dist  Freq  Var  ID
WISCONSIN RAPIDS131/18.621501WISW .. ... .--

Airport Services

Runway Information

Runway 18/36

Dimensions: 1650 x 90 ft. / 503 x 27 m
Surface: turf
RUNWAY 18  RUNWAY 36
Traffic pattern: leftleft
Obstructions: none40 ft. pline, marked, 216 ft. from runway

Airport Ownership and Management from official FAA records

Ownership: Privately-owned
Owner: TOM BUCHBERGER
N5160 5TH DRIVE
PLAINFIELD, WI 54966
Phone 715-335-6101
Manager: TOM BUCHBERGER
N 5160 5TH DRIVE
PLAINFIELD, WI 54966
Phone 715-335-6101

Airport Operational Statistics

Aircraft based on the field: 2
Single engine airplanes: 2
    

Additional Remarks

RY 18 IS FOR ARR USE ONLY AND 36 IS FOR DEP ONLY.
FOR CD CTC CHICAGO ARTCC AT 630-906-8921.

Instrument Procedures

There are no published instrument procedures at WN09.

Some nearby airports with instrument procedures:

Y50 - Wautoma Municipal Airport (11 nm SE)
63C - Adams County Airport-Legion Field (17 nm SW)
KISW - Alexander Field South Wood County Airport (18 nm NW)
KSTE - Stevens Point Municipal Airport (23 nm N)
KPCZ - Waupaca Municipal Airport (23 nm NE)
 
Loc | Ops | Rwys | IFR | FBO | Links
Com | Nav | Svcs | Stats | Notes
Area around WN09 (Bucky's Airpark)
 
Road maps at: MapQuest Bing Google
 
Aerial photo
No photo
 
Sectional chart

 
Airport distance calculator
Flying to Bucky's Airpark? Find the distance to fly.

From to WN09

Sunrise and sunset
Times for 15-Sep-2019
 Local
(UTC-5)
 Zulu
(UTC)
Morning civil twilight06:0911:09
Sunrise06:3811:38
Sunset19:0800:08
Evening civil twilight19:3700:37

Current date and time
Zulu (UTC)  15-Sep-2019 08:42:09
Local (UTC-5)  15-Sep-2019 03:42:09
 
METAR
KY50 
11nm SE 
150756Z AUTO 19003KT 10SM OVC047 17/17 A3002 RMK AO2 RAB16E26 SLP160 P0000 T01670167 $
KISW 
19nm NW 
150754Z AUTO 08003KT 10SM OVC047 17/16 A3001 RMK AO2 RAB27E38 SLP159 P0000 T01720161
KSTE 
22nm N 
150815Z AUTO 00000KT 10SM OVC043 14/14 A3002 RMK AO2 T01430143
TAF
KVOK 
36nm SW 
140900Z 1409/1515 22006KT 9999 BKN030 QNH3012INS BECMG 1412/1413 25009KT 9999 SCT030 BKN060 QNH3009INS TX19/1417Z TN13/1412Z LAST NO AMDS AFT 1409 NEXT 1609
KCWA 
37nm N 
150520Z 1506/1606 10006KT P6SM VCSH BKN035 OVC060 FM150900 15005KT 5SM BR VCSH SCT012 OVC020 TEMPO 1510/1512 BKN012 FM151200 VRB03KT 3SM -DZ BR OVC006 FM151600 27006KT P6SM OVC012 FM152000 31007KT P6SM BKN025 FM160200 VRB03KT 4SM BR BKN015 TEMPO 1604/1606 1 1/2SM BR AMD LTD TO CLD VIS AND WIND TIL 151100
KATW 
43nm E 
150520Z 1506/1606 17009KT P6SM VCSH BKN040 OVC070 WS020/23040KT FM151000 VRB03KT 4SM BR VCSH SCT009 OVC017 TEMPO 1510/1513 2SM SHRA BR BKN009 FM151300 23007KT 3SM -DZ BR OVC007 FM151900 29006KT 5SM -DZ BR OVC012 FM152200 33006KT P6SM BKN015 FM160200 03005KT 4SM BR OVC010
NOTAMs
Click for the latest NOTAMs
NOTAMs are issued by the DoD/FAA and will open in a separate window not controlled by AirNav.

 

 
 

Would you like to see your business listed on this page?

 If your business provides an interesting product or service to pilots, flight crews, aircraft, or users of the Bucky's Airpark, you should consider listing it here.  To start the listing process, click on the button below
 
Add a business
 

Other Pages about Bucky's Airpark

Update a link
 
Copyright © AirNav, LLC. All rights reserved. Privacy Policy  Contact